Terminal Aerodrome Forecast
Issued by NWS

Home | Current Version | Previous Version | Text Only | Print | Product List | Glossary On
Versions: 1 2 3 4 5 6 7 8 9 10 11 12 13 14 15 16 17 18 19
000
FTUS44 KBMX 261739
TAFANB
TAF
KANB 261739Z 2618/2718 20008G18KT P6SM SCT040 BKN250
     FM270000 16009G19KT P6SM SCT050
     FM270800 17012G26KT P6SM BKN025
     FM271000 16012G20KT 4SM TSRA BKN030CB OVC100
     FM271400 23012KT P6SM OVC015=

USA.gov is the U.S. government's official web portal to all federal, state and local government web resources and services.